createdAt,value
2023-01-26T00:02:10.110Z,101009.34
2023-01-26T00:04:42.511Z,101002.16
2023-01-26T00:07:14.945Z,100994.33
2023-01-26T00:09:47.513Z,100990.88
2023-01-26T00:12:19.887Z,100991.58
2023-01-26T00:14:52.250Z,100991.56
2023-01-26T00:17:27.477Z,100991.05
2023-01-26T00:19:59.285Z,100987.52
2023-01-26T00:22:31.737Z,100980.98
2023-01-26T00:25:04.095Z,100980.48
2023-01-26T00:27:36.673Z,100974.41
2023-01-26T00:30:12.227Z,100972.94
2023-01-26T00:32:44.809Z,100973.39
2023-01-26T00:35:17.325Z,100973.53
2023-01-26T00:37:49.896Z,100967.94
2023-01-26T00:40:22.346Z,100964.98
2023-01-26T00:42:55.639Z,100961.41
2023-01-26T00:45:28.084Z,100961.74
2023-01-26T00:48:00.941Z,100958.80
2023-01-26T00:50:35.052Z,100958.14
2023-01-26T00:53:07.492Z,100953.73
2023-01-26T00:55:40.190Z,100955.33
2023-01-26T00:58:13.273Z,100951.24
2023-01-26T01:00:45.639Z,100948.88
2023-01-26T01:03:18.143Z,100945.66
2023-01-26T01:05:53.041Z,100947.72
2023-01-26T01:08:25.435Z,100946.14
2023-01-26T01:11:08.286Z,100946.42
2023-01-26T01:13:41.281Z,100940.23
2023-01-26T01:16:16.672Z,100933.79
2023-01-26T01:18:49.127Z,100931.67
2023-01-26T01:21:21.783Z,100927.39
2023-01-26T01:23:54.169Z,100925.83
2023-01-26T01:26:26.547Z,100927.94
2023-01-26T01:28:59.390Z,100924.79
2023-01-26T01:31:32.035Z,100926.36
2023-01-26T01:34:04.588Z,100923.35
2023-01-26T01:36:36.924Z,100919.66
2023-01-26T01:39:09.414Z,100915.83
2023-01-26T01:41:41.804Z,100911.98
2023-01-26T01:44:21.984Z,100914.48
2023-01-26T01:46:58.591Z,100916.23
2023-01-26T01:49:34.685Z,100919.25
2023-01-26T01:52:12.170Z,100911.64
2023-01-26T01:54:48.948Z,100919.09
2023-01-26T01:57:27.946Z,100914.45
2023-01-26T02:00:04.277Z,100915.85
2023-01-26T02:03:07.327Z,100906.96
2023-01-26T02:05:47.378Z,100903.30
2023-01-26T02:08:22.870Z,100895.84
2023-01-26T02:10:59.966Z,100896.94
2023-01-26T02:13:34.750Z,100898.69
2023-01-26T02:16:10.937Z,100892.27
2023-01-26T02:18:43.795Z,100882.52
2023-01-26T02:21:21.268Z,100875.95
2023-01-26T02:24:05.033Z,100871.48
2023-01-26T02:26:38.871Z,100873.17
2023-01-26T02:29:12.845Z,100870.53
2023-01-26T02:31:49.496Z,100866.77
2023-01-26T02:34:21.975Z,100859.74
2023-01-26T02:37:01.624Z,100860.95
2023-01-26T02:39:45.654Z,100857.64
2023-01-26T02:42:36.127Z,100857.53
2023-01-26T02:45:11.232Z,100858.33
2023-01-26T02:47:42.033Z,100859.04
2023-01-26T02:50:16.963Z,100852.58
2023-01-26T02:52:49.743Z,100854.23
2023-01-26T02:55:25.475Z,100851.27
2023-01-26T02:57:59.680Z,100849.95
2023-01-26T03:00:35.088Z,100849.34
2023-01-26T03:03:11.180Z,100842.27
2023-01-26T03:05:43.645Z,100843.64
2023-01-26T03:08:16.188Z,100841.27
2023-01-26T03:10:49.230Z,100838.33
2023-01-26T03:13:23.095Z,100840.35
2023-01-26T03:15:55.513Z,100836.06
2023-01-26T03:18:46.235Z,100831.62
2023-01-26T03:21:37.274Z,100827.12
2023-01-26T03:24:31.258Z,100823.12
2023-01-26T03:27:22.458Z,100827.48
2023-01-26T03:29:56.637Z,100827.92
2023-01-26T03:32:29.332Z,100826.03
2023-01-26T03:35:02.105Z,100822.22
2023-01-26T03:37:37.116Z,100824.02
2023-01-26T03:40:34.369Z,100815.14
2023-01-26T03:43:28.374Z,100814.64
2023-01-26T03:46:20.660Z,100809.02
2023-01-26T03:49:10.659Z,100805.89
2023-01-26T03:52:00.433Z,100805.55
2023-01-26T03:54:50.601Z,100799.23
2023-01-26T03:57:23.469Z,100800.84
2023-01-26T03:59:56.022Z,100795.77
2023-01-26T04:02:46.298Z,100786.73
2023-01-26T04:05:35.958Z,100782.37
2023-01-26T04:08:24.805Z,100776.45
2023-01-26T04:11:02.966Z,100772.98
2023-01-26T04:13:53.017Z,100767.23
2023-01-26T04:16:51.831Z,100763.04
2023-01-26T04:19:41.795Z,100757.79
2023-01-26T04:22:15.160Z,100756.36
2023-01-26T04:24:49.047Z,100756.40
2023-01-26T04:27:21.504Z,100759.46
2023-01-26T04:29:53.829Z,100759.75
2023-01-26T04:32:27.270Z,100761.72
2023-01-26T04:34:59.764Z,100763.64
2023-01-26T04:37:33.357Z,100762.41
2023-01-26T04:40:07.276Z,100768.34
2023-01-26T04:42:41.158Z,100770.94
2023-01-26T04:45:14.601Z,100771.35
2023-01-26T04:47:48.109Z,100763.11
2023-01-26T04:50:22.008Z,100768.59
2023-01-26T04:52:54.355Z,100772.09
2023-01-26T04:55:26.629Z,100772.86
2023-01-26T04:57:59.110Z,100772.42
2023-01-26T05:00:31.373Z,100765.00
2023-01-26T05:03:03.805Z,100760.44
2023-01-26T05:05:40.070Z,100756.91
2023-01-26T05:08:12.675Z,100751.73
2023-01-26T05:10:45.265Z,100748.92
2023-01-26T05:13:27.546Z,100748.81
2023-01-26T05:16:18.557Z,100744.70
2023-01-26T05:19:21.137Z,100738.20
2023-01-26T05:22:03.779Z,100735.45
2023-01-26T05:24:38.017Z,100743.25
2023-01-26T05:27:22.441Z,100735.20
2023-01-26T05:30:02.037Z,100739.52
2023-01-26T05:32:36.608Z,100736.96
2023-01-26T05:35:10.015Z,100732.02
2023-01-26T05:37:43.316Z,100732.45
2023-01-26T05:40:16.474Z,100739.86
2023-01-26T05:42:49.782Z,100740.52
2023-01-26T05:45:40.883Z,100733.57
2023-01-26T05:48:14.542Z,100735.58
2023-01-26T05:50:47.167Z,100739.59
2023-01-26T05:53:21.568Z,100743.92
2023-01-26T05:55:54.241Z,100750.58
2023-01-26T05:58:29.825Z,100750.77
2023-01-26T06:01:06.946Z,100755.52
2023-01-26T06:03:45.346Z,100754.19
2023-01-26T06:06:17.829Z,100752.25
2023-01-26T06:08:57.563Z,100751.98
2023-01-26T06:11:40.170Z,100753.31
2023-01-26T06:14:26.898Z,100750.16
2023-01-26T06:16:59.785Z,100748.02
2023-01-26T06:19:32.180Z,100744.09
2023-01-26T06:22:09.163Z,100740.58
2023-01-26T06:24:43.428Z,100734.58
2023-01-26T06:27:18.978Z,100731.23
2023-01-26T06:29:53.731Z,100734.04
2023-01-26T06:32:28.199Z,100736.25
2023-01-26T06:35:01.296Z,100735.80
2023-01-26T06:37:33.711Z,100742.56
2023-01-26T06:40:09.806Z,100744.27
2023-01-26T06:42:47.856Z,100746.30
2023-01-26T06:45:20.923Z,100740.59
2023-01-26T06:47:55.177Z,100736.34
2023-01-26T06:50:33.020Z,100737.27
2023-01-26T06:53:26.411Z,100735.92
2023-01-26T06:56:17.502Z,100741.54
2023-01-26T06:59:02.249Z,100744.76
2023-01-26T07:01:53.059Z,100746.10
2023-01-26T07:04:28.373Z,100745.80
2023-01-26T07:07:00.889Z,100748.53
2023-01-26T07:09:33.168Z,100745.52
2023-01-26T07:12:06.053Z,100743.73
2023-01-26T07:14:38.445Z,100735.93
2023-01-26T07:17:10.700Z,100735.66
2023-01-26T07:19:42.970Z,100734.13
2023-01-26T07:22:19.766Z,100732.30
2023-01-26T07:24:51.960Z,100730.26
2023-01-26T07:27:24.152Z,100735.22
2023-01-26T07:29:56.599Z,100734.88
2023-01-26T07:32:28.967Z,100734.50
2023-01-26T07:35:01.274Z,100735.04
2023-01-26T07:37:33.716Z,100728.44
2023-01-26T07:40:07.064Z,100733.58
2023-01-26T07:42:39.538Z,100732.71
2023-01-26T07:45:24.072Z,100730.84
2023-01-26T07:47:58.955Z,100731.09
2023-01-26T07:50:30.274Z,100735.50
2023-01-26T07:53:04.244Z,100734.58
2023-01-26T07:55:36.579Z,100738.36
2023-01-26T07:58:08.831Z,100735.02
2023-01-26T08:00:41.359Z,100730.30
2023-01-26T08:03:13.735Z,100732.50
2023-01-26T08:05:47.334Z,100732.66
2023-01-26T08:08:20.058Z,100739.75
2023-01-26T08:10:52.283Z,100741.27
2023-01-26T08:13:34.630Z,100741.70
2023-01-26T08:16:12.229Z,100741.33
2023-01-26T08:18:46.393Z,100740.20
2023-01-26T08:21:19.917Z,100732.50
2023-01-26T08:23:53.363Z,100740.05
2023-01-26T08:26:25.732Z,100738.20
2023-01-26T08:28:58.627Z,100741.43
2023-01-26T08:31:31.060Z,100735.90
2023-01-26T08:34:04.234Z,100734.01
2023-01-26T08:36:36.470Z,100732.39
2023-01-26T08:39:08.928Z,100727.05
2023-01-26T08:41:41.342Z,100723.81
2023-01-26T08:44:13.978Z,100722.73
2023-01-26T08:46:47.478Z,100716.48
2023-01-26T08:49:19.937Z,100718.08
2023-01-26T08:51:52.348Z,100709.75
2023-01-26T08:54:24.683Z,100709.79
2023-01-26T08:56:56.932Z,100711.73
2023-01-26T08:59:29.238Z,100711.64
2023-01-26T09:02:01.607Z,100710.80
2023-01-26T09:04:34.369Z,100712.33
2023-01-26T09:07:07.115Z,100711.21
2023-01-26T09:09:39.506Z,100713.00
2023-01-26T09:12:11.840Z,100710.23
2023-01-26T09:14:44.149Z,100711.96
2023-01-26T09:17:16.432Z,100703.52
2023-01-26T09:19:48.568Z,100700.74
2023-01-26T09:22:20.790Z,100704.55
2023-01-26T09:24:53.040Z,100703.64
2023-01-26T09:27:25.664Z,100706.75
2023-01-26T09:29:58.143Z,100703.69
2023-01-26T09:32:31.166Z,100707.27
2023-01-26T09:35:03.470Z,100705.94
2023-01-26T09:37:35.792Z,100703.00
2023-01-26T09:40:16.881Z,100708.35
2023-01-26T09:43:06.519Z,100711.93
2023-01-26T09:45:47.891Z,100707.71
2023-01-26T09:48:32.821Z,100698.66
2023-01-26T09:51:10.663Z,100700.27
2023-01-26T09:53:54.219Z,100699.98
2023-01-26T09:56:29.556Z,100698.39
2023-01-26T09:59:06.693Z,100697.48
2023-01-26T10:01:44.973Z,100687.23
2023-01-26T10:04:29.919Z,100682.79
2023-01-26T10:07:03.286Z,100678.33
2023-01-26T10:09:53.133Z,100679.05
2023-01-26T10:12:29.864Z,100677.08
2023-01-26T10:15:08.498Z,100675.21
2023-01-26T10:17:43.968Z,100672.57
2023-01-26T10:20:26.213Z,100671.26
2023-01-26T10:23:03.719Z,100672.33
2023-01-26T10:25:39.601Z,100669.33
2023-01-26T10:28:17.417Z,100666.40
2023-01-26T10:30:51.471Z,100661.96
2023-01-26T10:33:29.446Z,100661.34
2023-01-26T10:36:02.187Z,100662.83
2023-01-26T10:38:45.539Z,100663.20
2023-01-26T10:41:31.104Z,100658.62
2023-01-26T10:44:06.186Z,100655.96
2023-01-26T10:46:39.841Z,100657.84
2023-01-26T10:49:18.959Z,100658.20
2023-01-26T10:52:08.543Z,100657.64
2023-01-26T10:54:43.796Z,100657.03
2023-01-26T10:57:23.445Z,100657.34
2023-01-26T10:59:59.097Z,100654.48
2023-01-26T11:02:33.026Z,100650.48
2023-01-26T11:05:21.529Z,100652.73
2023-01-26T11:07:58.803Z,100651.05
2023-01-26T11:10:35.016Z,100649.44
2023-01-26T11:13:16.718Z,100648.00
2023-01-26T11:15:51.080Z,100643.04
2023-01-26T11:18:35.767Z,100639.83
2023-01-26T11:21:12.933Z,100634.81
2023-01-26T11:23:55.312Z,100637.92
2023-01-26T11:26:49.496Z,100645.46
2023-01-26T11:29:38.592Z,100646.34
2023-01-26T11:32:23.516Z,100641.84
2023-01-26T11:35:06.262Z,100642.00
2023-01-26T11:37:44.392Z,100637.23
2023-01-26T11:40:31.569Z,100627.91
2023-01-26T11:43:24.039Z,100617.67
2023-01-26T11:46:09.739Z,100617.17
2023-01-26T11:48:58.013Z,100611.15
2023-01-26T11:51:45.420Z,100607.77
2023-01-26T11:54:39.906Z,100601.05
2023-01-26T11:57:23.084Z,100596.47
2023-01-26T12:00:01.176Z,100585.70
2023-01-26T12:02:36.903Z,100579.84
2023-01-26T12:05:18.928Z,100588.13
2023-01-26T12:07:55.776Z,100593.20
2023-01-26T12:10:34.660Z,100593.86
2023-01-26T12:13:15.536Z,100596.38
2023-01-26T12:15:53.974Z,100590.67
2023-01-26T12:18:46.803Z,100591.45
2023-01-26T12:21:22.050Z,100584.61
2023-01-26T12:23:59.863Z,100579.71
2023-01-26T12:26:38.003Z,100582.15
2023-01-26T12:29:18.181Z,100579.05
2023-01-26T12:31:56.286Z,100578.77
2023-01-26T12:34:33.515Z,100575.23
2023-01-26T12:37:27.450Z,100575.11
2023-01-26T12:40:14.091Z,100569.11
2023-01-26T12:42:51.740Z,100567.23
2023-01-26T12:45:30.292Z,100568.95
2023-01-26T12:48:12.917Z,100572.13
2023-01-26T12:50:50.732Z,100573.56
2023-01-26T12:53:30.259Z,100572.09
2023-01-26T12:56:10.820Z,100574.66
2023-01-26T12:58:47.033Z,100578.46
2023-01-26T13:01:22.433Z,100571.04
2023-01-26T13:03:59.016Z,100565.83
2023-01-26T13:06:32.044Z,100569.45
2023-01-26T13:09:19.763Z,100573.01
2023-01-26T13:11:54.754Z,100579.01
2023-01-26T13:14:37.493Z,100573.95
2023-01-26T13:17:40.550Z,100574.38
2023-01-26T13:20:43.497Z,100569.55
2023-01-26T13:23:53.082Z,100560.16
2023-01-26T13:26:45.608Z,100563.16
2023-01-26T13:29:36.246Z,100557.88
2023-01-26T13:32:48.390Z,100558.16
2023-01-26T13:35:24.288Z,100550.45
2023-01-26T13:38:04.639Z,100548.42
2023-01-26T13:40:38.848Z,100541.20
2023-01-26T13:43:26.649Z,100532.04
2023-01-26T13:46:13.778Z,100534.77
2023-01-26T13:48:48.852Z,100529.23
2023-01-26T13:51:20.908Z,100531.90
2023-01-26T13:53:59.158Z,100535.80
2023-01-26T13:56:34.490Z,100536.89
2023-01-26T13:59:12.635Z,100538.41
2023-01-26T14:01:47.617Z,100553.94
2023-01-26T14:04:21.742Z,100552.70
2023-01-26T14:06:57.578Z,100555.64
2023-01-26T14:09:32.818Z,100553.25
2023-01-26T14:12:08.471Z,100551.66
2023-01-26T14:14:41.464Z,100550.51
2023-01-26T14:17:28.365Z,100550.75
2023-01-26T14:20:03.739Z,100553.10
2023-01-26T14:22:37.824Z,100554.72
2023-01-26T14:25:12.323Z,100544.65
2023-01-26T14:27:45.102Z,100551.79
2023-01-26T14:30:29.913Z,100552.02
2023-01-26T14:33:07.501Z,100551.52
2023-01-26T14:35:40.000Z,100552.55
2023-01-26T14:38:20.051Z,100555.85
2023-01-26T14:40:54.219Z,100558.23
2023-01-26T14:43:30.204Z,100558.67
2023-01-26T14:46:08.034Z,100557.74
2023-01-26T14:48:44.264Z,100557.05
2023-01-26T14:51:23.014Z,100556.97
2023-01-26T14:53:59.827Z,100552.21
2023-01-26T14:56:38.189Z,100549.64
2023-01-26T14:59:20.090Z,100553.34
2023-01-26T15:01:52.590Z,100551.41
2023-01-26T15:04:37.921Z,100550.88
2023-01-26T15:07:36.511Z,100553.17
2023-01-26T15:10:31.842Z,100542.70
2023-01-26T15:13:07.217Z,100546.28
2023-01-26T15:15:41.147Z,100547.25
2023-01-26T15:18:21.959Z,100545.27
2023-01-26T15:21:01.377Z,100549.21
2023-01-26T15:23:36.244Z,100545.17
2023-01-26T15:26:10.785Z,100542.45
2023-01-26T15:28:43.324Z,100542.95
2023-01-26T15:31:26.557Z,100545.53
2023-01-26T15:34:01.730Z,100546.88
2023-01-26T15:36:48.335Z,100545.20
2023-01-26T15:39:21.723Z,100548.17
2023-01-26T15:42:13.596Z,100547.30
2023-01-26T15:44:45.893Z,100548.91
2023-01-26T15:47:18.196Z,100550.80
2023-01-26T15:49:50.599Z,100555.42
2023-01-26T15:52:25.862Z,100550.51
2023-01-26T15:54:58.206Z,100548.73
2023-01-26T15:57:31.712Z,100549.84
2023-01-26T16:00:04.939Z,100551.91
2023-01-26T16:02:39.225Z,100553.02
2023-01-26T16:05:17.262Z,100552.88
2023-01-26T16:07:53.051Z,100554.31
2023-01-26T16:10:25.322Z,100559.82
2023-01-26T16:12:57.786Z,100553.38
2023-01-26T16:15:43.457Z,100558.52
2023-01-26T16:18:16.094Z,100560.23
2023-01-26T16:20:50.201Z,100559.08
2023-01-26T16:23:24.863Z,100560.53
2023-01-26T16:25:57.483Z,100560.45
2023-01-26T16:28:29.886Z,100560.90
2023-01-26T16:31:06.678Z,100562.77
2023-01-26T16:33:39.005Z,100560.38
2023-01-26T16:36:14.579Z,100555.75
2023-01-26T16:38:47.665Z,100551.56
2023-01-26T16:41:25.647Z,100552.13
2023-01-26T16:43:59.695Z,100548.01
2023-01-26T16:46:33.333Z,100549.50
2023-01-26T16:49:05.652Z,100550.06
2023-01-26T16:51:41.673Z,100553.38
2023-01-26T16:54:14.175Z,100551.58
2023-01-26T16:56:46.416Z,100551.48
2023-01-26T16:59:18.707Z,100551.91
2023-01-26T17:01:51.040Z,100554.08
2023-01-26T17:04:23.412Z,100558.02
2023-01-26T17:06:55.668Z,100553.46
2023-01-26T17:09:28.714Z,100554.23
2023-01-26T17:12:00.978Z,100559.10
2023-01-26T17:14:33.386Z,100554.52
2023-01-26T17:17:06.023Z,100554.98
2023-01-26T17:19:38.319Z,100561.36
2023-01-26T17:22:10.663Z,100557.69
2023-01-26T17:24:43.680Z,100557.95
2023-01-26T17:27:16.077Z,100557.91
2023-01-26T17:29:50.100Z,100560.71
2023-01-26T17:32:25.570Z,100556.73
2023-01-26T17:34:58.198Z,100557.23
2023-01-26T17:37:31.707Z,100557.89
2023-01-26T17:40:04.698Z,100560.35
2023-01-26T17:42:37.037Z,100557.42
2023-01-26T17:48:21.479Z,100558.79
2023-01-26T17:50:56.074Z,100560.73
2023-01-26T17:53:29.108Z,100558.54
2023-01-26T17:56:01.322Z,100559.76
2023-01-26T17:58:33.554Z,100561.56
2023-01-26T18:01:06.374Z,100566.33
2023-01-26T18:03:42.952Z,100563.83
2023-01-26T18:06:15.620Z,100566.90
2023-01-26T18:08:48.581Z,100568.63
2023-01-26T18:11:21.332Z,100573.59
2023-01-26T18:13:55.491Z,100574.58
2023-01-26T18:16:27.776Z,100577.48
2023-01-26T18:19:01.381Z,100580.79
2023-01-26T18:21:36.027Z,100584.73
2023-01-26T18:24:11.104Z,100581.50
2023-01-26T18:26:43.355Z,100586.68
2023-01-26T18:29:16.793Z,100586.56
2023-01-26T18:31:49.253Z,100587.84
2023-01-26T18:34:21.590Z,100584.92
2023-01-26T18:36:53.747Z,100584.98
2023-01-26T18:39:25.885Z,100581.35
2023-01-26T18:41:58.207Z,100581.17
2023-01-26T18:44:30.387Z,100580.33
2023-01-26T18:47:02.574Z,100583.04
2023-01-26T18:49:34.726Z,100583.40
2023-01-26T18:52:06.915Z,100586.17
2023-01-26T18:54:39.112Z,100586.40
2023-01-26T18:57:11.251Z,100588.31
2023-01-26T18:59:43.401Z,100587.92
2023-01-26T19:02:16.478Z,100590.39
2023-01-26T19:04:48.737Z,100587.58
2023-01-26T19:07:21.369Z,100585.29
2023-01-26T19:09:53.559Z,100582.24
2023-01-26T19:12:25.820Z,100585.39
2023-01-26T19:14:58.009Z,100588.52
2023-01-26T19:17:30.252Z,100588.59
2023-01-26T19:20:02.516Z,100586.30
2023-01-26T19:22:34.676Z,100582.85
2023-01-26T19:25:07.587Z,100579.29
2023-01-26T19:27:40.482Z,100574.17
2023-01-26T19:30:15.571Z,100572.48
2023-01-26T19:33:04.806Z,100573.29
2023-01-26T19:35:39.367Z,100568.70
2023-01-26T19:38:11.556Z,100566.30
2023-01-26T19:40:47.093Z,100565.63
2023-01-26T19:43:20.238Z,100560.27
2023-01-26T19:45:54.131Z,100558.55
2023-01-26T19:48:28.806Z,100559.20
2023-01-26T19:51:03.521Z,100557.00
2023-01-26T19:53:37.906Z,100555.55
2023-01-26T19:56:11.715Z,100554.16
2023-01-26T19:58:44.155Z,100552.81
2023-01-26T20:01:16.456Z,100551.92
2023-01-26T20:03:52.785Z,100550.30
2023-01-26T20:06:27.416Z,100550.27
2023-01-26T20:09:00.894Z,100544.10
2023-01-26T20:11:34.265Z,100541.41
2023-01-26T20:14:08.866Z,100542.43
2023-01-26T20:16:41.283Z,100537.25
2023-01-26T20:19:15.099Z,100540.17
2023-01-26T20:21:47.343Z,100539.79
2023-01-26T20:24:20.017Z,100540.61
2023-01-26T20:26:53.178Z,100540.09
2023-01-26T20:29:25.401Z,100542.73
2023-01-26T20:31:57.676Z,100543.60
2023-01-26T20:34:30.048Z,100544.48
2023-01-26T20:37:02.236Z,100544.70
2023-01-26T20:39:34.416Z,100549.16
2023-01-26T20:42:06.868Z,100554.27
2023-01-26T20:44:42.373Z,100554.84
2023-01-26T20:47:15.471Z,100554.82
2023-01-26T20:49:47.689Z,100554.48
2023-01-26T20:52:21.889Z,100556.85
2023-01-26T20:54:54.720Z,100555.09
2023-01-26T20:57:27.036Z,100556.56
2023-01-26T20:59:59.352Z,100557.98
2023-01-26T21:02:31.523Z,100556.54
2023-01-26T21:05:05.338Z,100555.60
2023-01-26T21:07:37.953Z,100557.29
2023-01-26T21:10:11.798Z,100555.02
2023-01-26T21:12:45.592Z,100551.05
2023-01-26T21:15:17.929Z,100550.42
2023-01-26T21:17:50.367Z,100555.02
2023-01-26T21:20:24.174Z,100551.41
2023-01-26T21:22:58.711Z,100550.92
2023-01-26T21:25:30.961Z,100554.85
2023-01-26T21:28:03.172Z,100561.27
2023-01-26T21:30:35.445Z,100562.92
2023-01-26T21:33:07.732Z,100561.98
2023-01-26T21:35:40.557Z,100565.13
2023-01-26T21:38:12.805Z,100567.16
2023-01-26T21:40:44.971Z,100569.38
2023-01-26T21:43:17.171Z,100568.68
2023-01-26T21:45:56.010Z,100569.32
2023-01-26T21:48:38.167Z,100568.59
2023-01-26T21:51:28.918Z,100570.27
2023-01-26T21:54:01.938Z,100563.94
2023-01-26T21:56:34.612Z,100566.77
2023-01-26T21:59:14.686Z,100567.33
2023-01-26T22:01:48.903Z,100567.14
2023-01-26T22:04:24.320Z,100569.39
2023-01-26T22:06:56.845Z,100575.41
2023-01-26T22:09:30.114Z,100571.55
2023-01-26T22:12:02.327Z,100567.84
2023-01-26T22:14:34.612Z,100564.69
2023-01-26T22:17:06.880Z,100556.38
2023-01-26T22:19:39.159Z,100557.53
2023-01-26T22:22:12.799Z,100555.19
2023-01-26T22:24:45.054Z,100555.89
2023-01-26T22:27:17.253Z,100553.55
2023-01-26T22:29:49.450Z,100551.85
2023-01-26T22:32:21.733Z,100549.48
2023-01-26T22:34:54.019Z,100548.59
2023-01-26T22:37:26.484Z,100547.24
2023-01-26T22:39:59.491Z,100547.14
2023-01-26T22:42:31.744Z,100550.98
2023-01-26T22:45:04.155Z,100551.38
2023-01-26T22:47:38.623Z,100554.36
2023-01-26T22:50:14.103Z,100556.80
2023-01-26T22:52:46.512Z,100550.99
2023-01-26T22:55:19.297Z,100546.74
2023-01-26T22:57:51.738Z,100548.05
2023-01-26T23:00:24.260Z,100549.48
2023-01-26T23:02:56.526Z,100548.16
2023-01-26T23:05:28.763Z,100547.59
2023-01-26T23:08:01.380Z,100545.23
2023-01-26T23:10:33.749Z,100541.71
2023-01-26T23:13:06.398Z,100539.20
2023-01-26T23:15:40.638Z,100540.35
2023-01-26T23:18:12.917Z,100539.86
2023-01-26T23:20:45.134Z,100539.19
2023-01-26T23:23:19.277Z,100538.90
2023-01-26T23:25:51.951Z,100535.02
2023-01-26T23:28:26.237Z,100534.13
2023-01-26T23:30:59.804Z,100534.23
2023-01-26T23:33:33.869Z,100537.14
2023-01-26T23:36:07.679Z,100539.14
2023-01-26T23:38:40.556Z,100540.29
2023-01-26T23:41:12.972Z,100542.11
2023-01-26T23:43:45.354Z,100544.44
2023-01-26T23:46:17.619Z,100544.56
2023-01-26T23:48:49.869Z,100545.80
2023-01-26T23:51:22.204Z,100546.03
2023-01-26T23:53:55.867Z,100543.09
2023-01-26T23:56:28.074Z,100544.48
2023-01-26T23:59:00.205Z,100546.29
